sensor_id;sensor_type;location;lat;lon;timestamp;P1;durP1;ratioP1;P2;durP2;ratioP2
10461;SDS011;5278;42.656;23.374;2023-09-30T00:01:08;7.40;;;6.10;;
10461;SDS011;5278;42.656;23.374;2023-09-30T00:03:36;11.00;;;6.73;;
10461;SDS011;5278;42.656;23.374;2023-09-30T00:06:04;16.17;;;6.90;;
10461;SDS011;5278;42.656;23.374;2023-09-30T00:08:31;15.13;;;6.80;;
10461;SDS011;5278;42.656;23.374;2023-09-30T00:10:57;14.07;;;8.50;;
10461;SDS011;5278;42.656;23.374;2023-09-30T00:13:24;10.33;;;5.93;;
10461;SDS011;5278;42.656;23.374;2023-09-30T00:15:51;8.70;;;6.43;;
10461;SDS011;5278;42.656;23.374;2023-09-30T00:18:18;11.73;;;6.50;;
10461;SDS011;5278;42.656;23.374;2023-09-30T00:20:45;9.43;;;6.47;;
10461;SDS011;5278;42.656;23.374;2023-09-30T00:23:14;12.57;;;6.63;;
10461;SDS011;5278;42.656;23.374;2023-09-30T00:25:41;11.60;;;7.17;;
10461;SDS011;5278;42.656;23.374;2023-09-30T00:28:09;7.67;;;6.50;;
10461;SDS011;5278;42.656;23.374;2023-09-30T00:30:36;16.43;;;7.00;;
10461;SDS011;5278;42.656;23.374;2023-09-30T00:33:03;6.73;;;5.97;;
10461;SDS011;5278;42.656;23.374;2023-09-30T00:35:31;12.33;;;6.87;;
10461;SDS011;5278;42.656;23.374;2023-09-30T00:37:59;10.50;;;6.30;;
10461;SDS011;5278;42.656;23.374;2023-09-30T00:40:27;11.57;;;7.07;;
10461;SDS011;5278;42.656;23.374;2023-09-30T00:42:54;13.33;;;7.00;;
10461;SDS011;5278;42.656;23.374;2023-09-30T00:45:21;9.37;;;6.33;;
10461;SDS011;5278;42.656;23.374;2023-09-30T00:47:49;11.57;;;6.70;;
10461;SDS011;5278;42.656;23.374;2023-09-30T00:50:16;13.13;;;7.33;;
10461;SDS011;5278;42.656;23.374;2023-09-30T00:52:45;10.00;;;6.53;;
10461;SDS011;5278;42.656;23.374;2023-09-30T00:55:13;10.23;;;6.03;;
10461;SDS011;5278;42.656;23.374;2023-09-30T00:57:43;9.73;;;6.43;;
10461;SDS011;5278;42.656;23.374;2023-09-30T01:00:11;7.17;;;6.40;;
10461;SDS011;5278;42.656;23.374;2023-09-30T01:02:38;13.43;;;7.27;;
10461;SDS011;5278;42.656;23.374;2023-09-30T01:05:07;11.93;;;6.63;;
10461;SDS011;5278;42.656;23.374;2023-09-30T01:07:34;11.73;;;6.37;;
10461;SDS011;5278;42.656;23.374;2023-09-30T01:10:02;11.17;;;6.13;;
10461;SDS011;5278;42.656;23.374;2023-09-30T01:12:29;20.67;;;6.80;;
10461;SDS011;5278;42.656;23.374;2023-09-30T01:14:58;8.60;;;5.80;;
10461;SDS011;5278;42.656;23.374;2023-09-30T01:17:26;11.10;;;6.23;;
10461;SDS011;5278;42.656;23.374;2023-09-30T01:19:54;11.37;;;5.87;;
10461;SDS011;5278;42.656;23.374;2023-09-30T01:22:25;10.13;;;6.77;;
10461;SDS011;5278;42.656;23.374;2023-09-30T01:24:53;13.87;;;5.90;;
10461;SDS011;5278;42.656;23.374;2023-09-30T01:27:21;9.27;;;6.13;;
10461;SDS011;5278;42.656;23.374;2023-09-30T01:29:48;11.13;;;5.80;;
10461;SDS011;5278;42.656;23.374;2023-09-30T01:32:15;13.63;;;6.40;;
10461;SDS011;5278;42.656;23.374;2023-09-30T01:34:42;7.57;;;5.43;;
10461;SDS011;5278;42.656;23.374;2023-09-30T01:37:09;8.33;;;5.60;;
10461;SDS011;5278;42.656;23.374;2023-09-30T01:39:37;10.83;;;6.50;;
10461;SDS011;5278;42.656;23.374;2023-09-30T01:42:04;8.67;;;6.23;;
10461;SDS011;5278;42.656;23.374;2023-09-30T01:44:31;8.37;;;5.50;;
10461;SDS011;5278;42.656;23.374;2023-09-30T01:46:58;11.23;;;6.40;;
10461;SDS011;5278;42.656;23.374;2023-09-30T01:49:25;13.67;;;6.40;;
10461;SDS011;5278;42.656;23.374;2023-09-30T01:51:52;10.27;;;6.47;;
10461;SDS011;5278;42.656;23.374;2023-09-30T01:54:19;9.33;;;6.20;;
10461;SDS011;5278;42.656;23.374;2023-09-30T01:56:50;12.37;;;6.27;;
10461;SDS011;5278;42.656;23.374;2023-09-30T01:59:16;8.37;;;5.90;;
10461;SDS011;5278;42.656;23.374;2023-09-30T02:01:43;7.57;;;5.53;;
10461;SDS011;5278;42.656;23.374;2023-09-30T02:04:11;9.97;;;5.87;;
10461;SDS011;5278;42.656;23.374;2023-09-30T02:06:40;6.80;;;5.30;;
10461;SDS011;5278;42.656;23.374;2023-09-30T02:09:08;9.97;;;5.43;;
10461;SDS011;5278;42.656;23.374;2023-09-30T02:11:35;13.50;;;5.67;;
10461;SDS011;5278;42.656;23.374;2023-09-30T02:14:04;8.73;;;5.53;;
10461;SDS011;5278;42.656;23.374;2023-09-30T02:16:32;7.43;;;5.47;;
10461;SDS011;5278;42.656;23.374;2023-09-30T02:18:59;8.80;;;5.53;;
10461;SDS011;5278;42.656;23.374;2023-09-30T02:21:27;11.97;;;6.53;;
10461;SDS011;5278;42.656;23.374;2023-09-30T02:23:54;12.53;;;5.70;;
10461;SDS011;5278;42.656;23.374;2023-09-30T02:26:21;11.17;;;6.23;;
10461;SDS011;5278;42.656;23.374;2023-09-30T02:28:50;11.23;;;5.83;;
10461;SDS011;5278;42.656;23.374;2023-09-30T02:31:20;7.97;;;6.13;;
10461;SDS011;5278;42.656;23.374;2023-09-30T02:33:49;12.97;;;6.43;;
10461;SDS011;5278;42.656;23.374;2023-09-30T02:36:16;12.30;;;6.40;;
10461;SDS011;5278;42.656;23.374;2023-09-30T02:38:44;12.33;;;6.43;;
10461;SDS011;5278;42.656;23.374;2023-09-30T02:41:11;10.77;;;6.23;;
10461;SDS011;5278;42.656;23.374;2023-09-30T02:43:38;8.40;;;6.07;;
10461;SDS011;5278;42.656;23.374;2023-09-30T02:46:06;8.67;;;6.00;;
10461;SDS011;5278;42.656;23.374;2023-09-30T02:48:35;16.83;;;6.37;;
10461;SDS011;5278;42.656;23.374;2023-09-30T02:51:02;9.90;;;6.67;;
10461;SDS011;5278;42.656;23.374;2023-09-30T02:53:29;9.57;;;6.30;;
10461;SDS011;5278;42.656;23.374;2023-09-30T02:55:56;10.93;;;6.30;;
10461;SDS011;5278;42.656;23.374;2023-09-30T02:58:25;8.80;;;5.90;;
10461;SDS011;5278;42.656;23.374;2023-09-30T03:00:54;12.07;;;6.63;;
10461;SDS011;5278;42.656;23.374;2023-09-30T03:03:21;11.80;;;6.80;;
10461;SDS011;5278;42.656;23.374;2023-09-30T03:05:52;10.30;;;6.40;;
10461;SDS011;5278;42.656;23.374;2023-09-30T03:08:19;19.93;;;6.63;;
10461;SDS011;5278;42.656;23.374;2023-09-30T03:10:47;8.70;;;6.43;;
10461;SDS011;5278;42.656;23.374;2023-09-30T03:13:14;9.30;;;7.47;;
10461;SDS011;5278;42.656;23.374;2023-09-30T03:15:40;11.00;;;6.90;;
10461;SDS011;5278;42.656;23.374;2023-09-30T03:18:07;9.53;;;6.80;;
10461;SDS011;5278;42.656;23.374;2023-09-30T03:20:34;7.30;;;6.07;;
10461;SDS011;5278;42.656;23.374;2023-09-30T03:23:06;10.70;;;6.57;;
10461;SDS011;5278;42.656;23.374;2023-09-30T03:25:34;10.97;;;6.70;;
10461;SDS011;5278;42.656;23.374;2023-09-30T03:28:01;16.83;;;11.43;;
10461;SDS011;5278;42.656;23.374;2023-09-30T03:30:31;12.93;;;6.93;;
10461;SDS011;5278;42.656;23.374;2023-09-30T03:32:58;21.50;;;14.93;;
10461;SDS011;5278;42.656;23.374;2023-09-30T03:35:24;13.87;;;9.00;;
10461;SDS011;5278;42.656;23.374;2023-09-30T03:37:51;12.77;;;7.07;;
10461;SDS011;5278;42.656;23.374;2023-09-30T03:40:20;9.30;;;6.37;;
10461;SDS011;5278;42.656;23.374;2023-09-30T03:42:58;9.57;;;6.20;;
10461;SDS011;5278;42.656;23.374;2023-09-30T03:45:25;10.07;;;6.40;;
10461;SDS011;5278;42.656;23.374;2023-09-30T03:47:52;11.23;;;6.23;;
10461;SDS011;5278;42.656;23.374;2023-09-30T03:50:19;12.10;;;6.80;;
10461;SDS011;5278;42.656;23.374;2023-09-30T03:52:48;13.20;;;6.83;;
10461;SDS011;5278;42.656;23.374;2023-09-30T03:55:16;10.73;;;6.57;;
10461;SDS011;5278;42.656;23.374;2023-09-30T03:57:47;10.07;;;6.60;;
10461;SDS011;5278;42.656;23.374;2023-09-30T04:00:13;19.13;;;6.60;;
10461;SDS011;5278;42.656;23.374;2023-09-30T04:02:44;10.43;;;5.97;;
10461;SDS011;5278;42.656;23.374;2023-09-30T04:05:13;10.70;;;6.97;;
10461;SDS011;5278;42.656;23.374;2023-09-30T04:07:42;11.23;;;6.53;;
10461;SDS011;5278;42.656;23.374;2023-09-30T04:10:09;8.53;;;5.60;;
10461;SDS011;5278;42.656;23.374;2023-09-30T04:12:38;11.60;;;7.03;;
10461;SDS011;5278;42.656;23.374;2023-09-30T04:15:07;8.73;;;6.23;;
10461;SDS011;5278;42.656;23.374;2023-09-30T04:17:37;7.70;;;5.90;;
10461;SDS011;5278;42.656;23.374;2023-09-30T04:20:05;7.97;;;5.87;;
10461;SDS011;5278;42.656;23.374;2023-09-30T04:22:35;10.37;;;7.50;;
10461;SDS011;5278;42.656;23.374;2023-09-30T04:25:02;8.87;;;6.07;;
10461;SDS011;5278;42.656;23.374;2023-09-30T04:27:33;11.70;;;7.40;;
10461;SDS011;5278;42.656;23.374;2023-09-30T04:30:01;14.63;;;6.67;;
10461;SDS011;5278;42.656;23.374;2023-09-30T04:32:35;12.17;;;6.37;;
10461;SDS011;5278;42.656;23.374;2023-09-30T04:35:03;10.93;;;7.17;;
10461;SDS011;5278;42.656;23.374;2023-09-30T04:37:31;12.43;;;6.97;;
10461;SDS011;5278;42.656;23.374;2023-09-30T04:39:58;11.97;;;7.00;;
10461;SDS011;5278;42.656;23.374;2023-09-30T04:42:25;14.07;;;7.13;;
10461;SDS011;5278;42.656;23.374;2023-09-30T04:44:52;10.90;;;7.37;;
10461;SDS011;5278;42.656;23.374;2023-09-30T04:47:19;12.33;;;6.97;;
10461;SDS011;5278;42.656;23.374;2023-09-30T04:49:48;13.83;;;7.77;;
10461;SDS011;5278;42.656;23.374;2023-09-30T04:52:16;10.80;;;7.80;;
10461;SDS011;5278;42.656;23.374;2023-09-30T04:54:43;12.53;;;6.53;;
10461;SDS011;5278;42.656;23.374;2023-09-30T04:57:10;11.07;;;6.20;;
10461;SDS011;5278;42.656;23.374;2023-09-30T04:59:37;11.10;;;6.40;;
10461;SDS011;5278;42.656;23.374;2023-09-30T05:02:04;10.63;;;6.63;;
10461;SDS011;5278;42.656;23.374;2023-09-30T05:04:31;12.10;;;5.87;;
10461;SDS011;5278;42.656;23.374;2023-09-30T05:06:59;8.50;;;6.40;;
10461;SDS011;5278;42.656;23.374;2023-09-30T05:09:26;11.83;;;6.37;;
10461;SDS011;5278;42.656;23.374;2023-09-30T05:11:54;16.73;;;6.27;;
10461;SDS011;5278;42.656;23.374;2023-09-30T05:14:21;10.97;;;6.00;;
10461;SDS011;5278;42.656;23.374;2023-09-30T05:16:48;9.90;;;6.40;;
10461;SDS011;5278;42.656;23.374;2023-09-30T05:19:15;8.77;;;6.40;;
10461;SDS011;5278;42.656;23.374;2023-09-30T05:21:42;9.33;;;6.53;;
10461;SDS011;5278;42.656;23.374;2023-09-30T05:24:11;10.23;;;6.73;;
10461;SDS011;5278;42.656;23.374;2023-09-30T05:26:39;11.30;;;5.93;;
10461;SDS011;5278;42.656;23.374;2023-09-30T05:29:06;7.43;;;6.23;;
10461;SDS011;5278;42.656;23.374;2023-09-30T05:31:33;9.13;;;6.73;;
10461;SDS011;5278;42.656;23.374;2023-09-30T05:34:00;9.60;;;6.40;;
10461;SDS011;5278;42.656;23.374;2023-09-30T05:36:28;11.17;;;7.27;;
10461;SDS011;5278;42.656;23.374;2023-09-30T05:38:56;8.67;;;6.27;;
10461;SDS011;5278;42.656;23.374;2023-09-30T05:41:24;13.50;;;6.93;;
10461;SDS011;5278;42.656;23.374;2023-09-30T05:43:52;11.63;;;6.87;;
10461;SDS011;5278;42.656;23.374;2023-09-30T05:46:20;10.53;;;6.17;;
10461;SDS011;5278;42.656;23.374;2023-09-30T05:48:47;9.53;;;6.60;;
10461;SDS011;5278;42.656;23.374;2023-09-30T05:51:14;11.30;;;7.13;;
10461;SDS011;5278;42.656;23.374;2023-09-30T05:53:40;13.37;;;6.60;;
10461;SDS011;5278;42.656;23.374;2023-09-30T05:56:07;12.47;;;6.73;;
10461;SDS011;5278;42.656;23.374;2023-09-30T05:58:40;8.67;;;6.30;;
10461;SDS011;5278;42.656;23.374;2023-09-30T06:01:07;14.80;;;6.97;;
10461;SDS011;5278;42.656;23.374;2023-09-30T06:03:44;15.23;;;6.97;;
10461;SDS011;5278;42.656;23.374;2023-09-30T06:06:12;8.93;;;6.70;;
10461;SDS011;5278;42.656;23.374;2023-09-30T06:08:41;9.30;;;6.80;;
10461;SDS011;5278;42.656;23.374;2023-09-30T06:11:15;11.23;;;7.53;;
10461;SDS011;5278;42.656;23.374;2023-09-30T06:13:44;8.77;;;7.00;;
10461;SDS011;5278;42.656;23.374;2023-09-30T06:16:12;10.13;;;6.97;;
10461;SDS011;5278;42.656;23.374;2023-09-30T06:18:39;10.97;;;6.77;;
10461;SDS011;5278;42.656;23.374;2023-09-30T06:21:06;15.50;;;9.67;;
10461;SDS011;5278;42.656;23.374;2023-09-30T06:23:35;12.43;;;6.90;;
10461;SDS011;5278;42.656;23.374;2023-09-30T06:26:02;8.87;;;6.93;;
10461;SDS011;5278;42.656;23.374;2023-09-30T06:28:29;14.90;;;7.83;;
10461;SDS011;5278;42.656;23.374;2023-09-30T06:30:59;12.83;;;8.00;;
10461;SDS011;5278;42.656;23.374;2023-09-30T06:33:26;14.37;;;8.03;;
10461;SDS011;5278;42.656;23.374;2023-09-30T06:35:54;11.23;;;7.17;;
10461;SDS011;5278;42.656;23.374;2023-09-30T06:38:21;7.77;;;6.77;;
10461;SDS011;5278;42.656;23.374;2023-09-30T06:40:48;10.77;;;7.40;;
10461;SDS011;5278;42.656;23.374;2023-09-30T06:43:15;13.87;;;6.90;;
10461;SDS011;5278;42.656;23.374;2023-09-30T06:45:43;15.87;;;8.17;;
10461;SDS011;5278;42.656;23.374;2023-09-30T06:48:13;9.70;;;6.53;;
10461;SDS011;5278;42.656;23.374;2023-09-30T06:50:43;16.90;;;7.03;;
10461;SDS011;5278;42.656;23.374;2023-09-30T06:53:13;7.93;;;6.63;;
10461;SDS011;5278;42.656;23.374;2023-09-30T06:55:41;9.47;;;6.67;;
10461;SDS011;5278;42.656;23.374;2023-09-30T06:58:08;12.33;;;6.90;;
10461;SDS011;5278;42.656;23.374;2023-09-30T07:00:36;13.10;;;6.73;;
10461;SDS011;5278;42.656;23.374;2023-09-30T07:03:03;7.47;;;5.87;;
10461;SDS011;5278;42.656;23.374;2023-09-30T07:05:33;10.73;;;6.30;;
10461;SDS011;5278;42.656;23.374;2023-09-30T07:08:00;11.83;;;6.77;;
10461;SDS011;5278;42.656;23.374;2023-09-30T07:10:27;8.70;;;6.03;;
10461;SDS011;5278;42.656;23.374;2023-09-30T07:12:55;7.38;;;5.82;;
10461;SDS011;5278;42.656;23.374;2023-09-30T07:15:22;9.25;;;6.35;;
10461;SDS011;5278;42.656;23.374;2023-09-30T07:17:49;12.35;;;6.18;;
10461;SDS011;5278;42.656;23.374;2023-09-30T07:20:17;8.68;;;6.20;;
10461;SDS011;5278;42.656;23.374;2023-09-30T07:22:46;10.55;;;6.22;;
10461;SDS011;5278;42.656;23.374;2023-09-30T07:25:13;9.82;;;5.93;;
10461;SDS011;5278;42.656;23.374;2023-09-30T07:27:42;7.18;;;5.38;;
10461;SDS011;5278;42.656;23.374;2023-09-30T07:30:13;10.73;;;5.68;;
10461;SDS011;5278;42.656;23.374;2023-09-30T07:32:41;9.07;;;5.55;;
10461;SDS011;5278;42.656;23.374;2023-09-30T07:35:08;10.10;;;6.00;;
10461;SDS011;5278;42.656;23.374;2023-09-30T07:37:36;7.03;;;5.70;;
10461;SDS011;5278;42.656;23.374;2023-09-30T07:40:05;9.43;;;5.65;;
10461;SDS011;5278;42.656;23.374;2023-09-30T07:42:33;11.30;;;5.50;;
10461;SDS011;5278;42.656;23.374;2023-09-30T07:45:00;8.63;;;5.38;;
10461;SDS011;5278;42.656;23.374;2023-09-30T07:47:28;11.43;;;5.90;;
10461;SDS011;5278;42.656;23.374;2023-09-30T07:49:55;6.97;;;6.15;;
10461;SDS011;5278;42.656;23.374;2023-09-30T07:52:22;10.18;;;5.78;;
10461;SDS011;5278;42.656;23.374;2023-09-30T07:54:49;13.48;;;5.38;;
10461;SDS011;5278;42.656;23.374;2023-09-30T07:57:18;11.73;;;5.55;;
10461;SDS011;5278;42.656;23.374;2023-09-30T07:59:45;9.55;;;5.05;;
10461;SDS011;5278;42.656;23.374;2023-09-30T08:02:14;11.57;;;4.93;;
10461;SDS011;5278;42.656;23.374;2023-09-30T08:04:43;9.25;;;5.55;;
10461;SDS011;5278;42.656;23.374;2023-09-30T08:07:10;7.50;;;5.78;;
10461;SDS011;5278;42.656;23.374;2023-09-30T08:09:36;8.55;;;5.32;;
10461;SDS011;5278;42.656;23.374;2023-09-30T08:12:04;9.85;;;6.10;;
10461;SDS011;5278;42.656;23.374;2023-09-30T08:14:33;8.25;;;6.25;;
10461;SDS011;5278;42.656;23.374;2023-09-30T08:17:00;12.10;;;5.72;;
10461;SDS011;5278;42.656;23.374;2023-09-30T08:19:27;5.70;;;5.07;;
10461;SDS011;5278;42.656;23.374;2023-09-30T08:21:54;14.10;;;5.60;;
10461;SDS011;5278;42.656;23.374;2023-09-30T08:24:21;8.20;;;5.60;;
10461;SDS011;5278;42.656;23.374;2023-09-30T08:26:48;9.75;;;5.35;;
10461;SDS011;5278;42.656;23.374;2023-09-30T08:29:16;5.57;;;5.07;;
10461;SDS011;5278;42.656;23.374;2023-09-30T08:31:45;11.30;;;5.63;;
10461;SDS011;5278;42.656;23.374;2023-09-30T08:34:12;6.72;;;5.43;;
10461;SDS011;5278;42.656;23.374;2023-09-30T08:36:39;11.85;;;5.40;;
10461;SDS011;5278;42.656;23.374;2023-09-30T08:39:06;8.43;;;5.07;;
10461;SDS011;5278;42.656;23.374;2023-09-30T08:41:35;9.20;;;5.75;;
10461;SDS011;5278;42.656;23.374;2023-09-30T08:44:03;10.23;;;6.00;;
10461;SDS011;5278;42.656;23.374;2023-09-30T08:46:32;14.10;;;6.00;;
10461;SDS011;5278;42.656;23.374;2023-09-30T08:49:03;8.52;;;5.40;;
10461;SDS011;5278;42.656;23.374;2023-09-30T08:51:31;9.18;;;5.95;;
10461;SDS011;5278;42.656;23.374;2023-09-30T08:54:00;8.32;;;7.03;;
10461;SDS011;5278;42.656;23.374;2023-09-30T08:56:29;9.27;;;7.15;;
10461;SDS011;5278;42.656;23.374;2023-09-30T08:58:58;11.18;;;7.35;;
10461;SDS011;5278;42.656;23.374;2023-09-30T09:01:26;8.93;;;6.97;;
10461;SDS011;5278;42.656;23.374;2023-09-30T09:03:53;9.35;;;7.60;;
10461;SDS011;5278;42.656;23.374;2023-09-30T09:06:22;11.10;;;7.82;;
10461;SDS011;5278;42.656;23.374;2023-09-30T09:08:50;10.57;;;6.90;;
10461;SDS011;5278;42.656;23.374;2023-09-30T09:11:18;9.43;;;6.45;;
10461;SDS011;5278;42.656;23.374;2023-09-30T09:13:47;10.10;;;6.88;;
10461;SDS011;5278;42.656;23.374;2023-09-30T09:16:18;9.55;;;6.60;;
10461;SDS011;5278;42.656;23.374;2023-09-30T09:18:45;8.70;;;7.55;;
10461;SDS011;5278;42.656;23.374;2023-09-30T09:21:13;8.48;;;7.63;;
10461;SDS011;5278;42.656;23.374;2023-09-30T09:23:44;10.02;;;6.95;;
10461;SDS011;5278;42.656;23.374;2023-09-30T09:26:22;9.02;;;6.50;;
10461;SDS011;5278;42.656;23.374;2023-09-30T09:28:50;13.95;;;8.50;;
10461;SDS011;5278;42.656;23.374;2023-09-30T09:31:23;12.43;;;7.30;;
10461;SDS011;5278;42.656;23.374;2023-09-30T09:33:51;10.90;;;6.68;;
10461;SDS011;5278;42.656;23.374;2023-09-30T09:36:18;16.08;;;7.88;;
10461;SDS011;5278;42.656;23.374;2023-09-30T09:38:48;8.25;;;6.80;;
10461;SDS011;5278;42.656;23.374;2023-09-30T09:41:19;11.77;;;6.72;;
10461;SDS011;5278;42.656;23.374;2023-09-30T09:43:48;10.57;;;6.90;;
10461;SDS011;5278;42.656;23.374;2023-09-30T09:46:17;12.25;;;6.60;;
10461;SDS011;5278;42.656;23.374;2023-09-30T09:48:45;10.90;;;6.85;;
10461;SDS011;5278;42.656;23.374;2023-09-30T09:51:13;11.20;;;6.68;;
10461;SDS011;5278;42.656;23.374;2023-09-30T09:53:41;14.45;;;6.57;;
10461;SDS011;5278;42.656;23.374;2023-09-30T09:56:10;7.85;;;6.53;;
10461;SDS011;5278;42.656;23.374;2023-09-30T09:58:39;10.23;;;6.05;;
10461;SDS011;5278;42.656;23.374;2023-09-30T10:01:08;10.88;;;5.43;;
10461;SDS011;5278;42.656;23.374;2023-09-30T10:03:37;8.05;;;5.22;;
10461;SDS011;5278;42.656;23.374;2023-09-30T10:06:05;8.95;;;5.47;;
10461;SDS011;5278;42.656;23.374;2023-09-30T10:08:35;7.10;;;5.55;;
10461;SDS011;5278;42.656;23.374;2023-09-30T10:11:07;9.05;;;5.97;;
10461;SDS011;5278;42.656;23.374;2023-09-30T10:13:55;9.93;;;5.72;;
10461;SDS011;5278;42.656;23.374;2023-09-30T10:19:17;9.45;;;5.57;;
10461;SDS011;5278;42.656;23.374;2023-09-30T10:24:50;8.80;;;5.15;;
10461;SDS011;5278;42.656;23.374;2023-09-30T10:30:11;7.10;;;5.20;;
10461;SDS011;5278;42.656;23.374;2023-09-30T10:35:44;4.90;;;4.40;;
10461;SDS011;5278;42.656;23.374;2023-09-30T10:41:07;5.93;;;4.80;;
10461;SDS011;5278;42.656;23.374;2023-09-30T10:43:35;12.60;;;5.45;;
10461;SDS011;5278;42.656;23.374;2023-09-30T10:46:04;9.90;;;4.68;;
10461;SDS011;5278;42.656;23.374;2023-09-30T10:51:48;6.40;;;4.28;;
10461;SDS011;5278;42.656;23.374;2023-09-30T10:54:21;6.78;;;3.92;;
10461;SDS011;5278;42.656;23.374;2023-09-30T10:56:48;8.25;;;4.03;;
10461;SDS011;5278;42.656;23.374;2023-09-30T10:59:18;10.18;;;4.47;;
10461;SDS011;5278;42.656;23.374;2023-09-30T11:01:47;10.88;;;4.22;;
10461;SDS011;5278;42.656;23.374;2023-09-30T11:04:13;5.32;;;4.80;;
10461;SDS011;5278;42.656;23.374;2023-09-30T11:06:41;5.93;;;4.50;;
10461;SDS011;5278;42.656;23.374;2023-09-30T11:09:08;8.10;;;4.53;;
10461;SDS011;5278;42.656;23.374;2023-09-30T11:11:39;8.55;;;4.53;;
10461;SDS011;5278;42.656;23.374;2023-09-30T11:14:18;4.80;;;4.18;;
10461;SDS011;5278;42.656;23.374;2023-09-30T11:16:47;7.55;;;5.65;;
10461;SDS011;5278;42.656;23.374;2023-09-30T11:19:14;7.15;;;4.70;;
10461;SDS011;5278;42.656;23.374;2023-09-30T11:21:42;6.75;;;6.05;;
10461;SDS011;5278;42.656;23.374;2023-09-30T11:24:10;5.72;;;5.10;;
10461;SDS011;5278;42.656;23.374;2023-09-30T11:26:37;7.07;;;4.80;;
10461;SDS011;5278;42.656;23.374;2023-09-30T11:29:06;9.15;;;4.88;;
10461;SDS011;5278;42.656;23.374;2023-09-30T11:31:39;6.38;;;4.40;;
10461;SDS011;5278;42.656;23.374;2023-09-30T11:34:09;14.75;;;5.00;;
10461;SDS011;5278;42.656;23.374;2023-09-30T11:36:37;8.32;;;5.03;;
10461;SDS011;5278;42.656;23.374;2023-09-30T11:39:05;7.13;;;4.50;;
10461;SDS011;5278;42.656;23.374;2023-09-30T11:41:34;6.80;;;4.90;;
10461;SDS011;5278;42.656;23.374;2023-09-30T11:44:04;8.55;;;5.30;;
10461;SDS011;5278;42.656;23.374;2023-09-30T11:49:25;7.35;;;4.30;;
10461;SDS011;5278;42.656;23.374;2023-09-30T11:51:53;11.32;;;4.68;;
10461;SDS011;5278;42.656;23.374;2023-09-30T11:54:20;5.65;;;4.22;;
10461;SDS011;5278;42.656;23.374;2023-09-30T11:56:48;5.93;;;4.80;;
10461;SDS011;5278;42.656;23.374;2023-09-30T11:59:15;8.48;;;5.68;;
10461;SDS011;5278;42.656;23.374;2023-09-30T12:01:44;7.55;;;4.70;;
10461;SDS011;5278;42.656;23.374;2023-09-30T12:04:14;7.10;;;5.57;;
10461;SDS011;5278;42.656;23.374;2023-09-30T12:06:45;10.90;;;5.00;;
10461;SDS011;5278;42.656;23.374;2023-09-30T12:09:13;12.70;;;6.32;;
10461;SDS011;5278;42.656;23.374;2023-09-30T12:11:41;5.43;;;4.40;;
10461;SDS011;5278;42.656;23.374;2023-09-30T12:14:09;9.45;;;5.05;;
10461;SDS011;5278;42.656;23.374;2023-09-30T12:16:37;5.35;;;4.85;;
10461;SDS011;5278;42.656;23.374;2023-09-30T12:19:04;8.13;;;5.38;;
10461;SDS011;5278;42.656;23.374;2023-09-30T12:21:35;10.60;;;5.82;;
10461;SDS011;5278;42.656;23.374;2023-09-30T12:24:04;11.37;;;6.20;;
10461;SDS011;5278;42.656;23.374;2023-09-30T12:26:32;8.00;;;5.43;;
10461;SDS011;5278;42.656;23.374;2023-09-30T12:28:59;5.90;;;5.30;;
10461;SDS011;5278;42.656;23.374;2023-09-30T12:31:26;7.00;;;4.73;;
10461;SDS011;5278;42.656;23.374;2023-09-30T12:33:54;6.80;;;4.67;;
10461;SDS011;5278;42.656;23.374;2023-09-30T12:36:21;7.67;;;5.20;;
10461;SDS011;5278;42.656;23.374;2023-09-30T12:38:49;8.67;;;5.13;;
10461;SDS011;5278;42.656;23.374;2023-09-30T12:41:17;10.13;;;6.03;;
10461;SDS011;5278;42.656;23.374;2023-09-30T12:43:46;9.40;;;6.97;;
10461;SDS011;5278;42.656;23.374;2023-09-30T12:46:13;7.97;;;4.93;;
10461;SDS011;5278;42.656;23.374;2023-09-30T12:48:39;8.90;;;5.70;;
10461;SDS011;5278;42.656;23.374;2023-09-30T12:51:07;9.70;;;4.90;;
10461;SDS011;5278;42.656;23.374;2023-09-30T12:53:35;11.87;;;4.73;;
10461;SDS011;5278;42.656;23.374;2023-09-30T12:56:02;8.13;;;5.00;;
10461;SDS011;5278;42.656;23.374;2023-09-30T12:58:30;7.67;;;4.57;;
10461;SDS011;5278;42.656;23.374;2023-09-30T13:00:59;6.30;;;4.60;;
10461;SDS011;5278;42.656;23.374;2023-09-30T13:03:26;7.67;;;4.67;;
10461;SDS011;5278;42.656;23.374;2023-09-30T13:05:53;11.80;;;5.20;;
10461;SDS011;5278;42.656;23.374;2023-09-30T13:08:21;6.37;;;4.70;;
10461;SDS011;5278;42.656;23.374;2023-09-30T13:10:48;5.03;;;4.53;;
10461;SDS011;5278;42.656;23.374;2023-09-30T13:13:17;6.80;;;4.70;;
10461;SDS011;5278;42.656;23.374;2023-09-30T13:15:46;6.77;;;4.50;;
10461;SDS011;5278;42.656;23.374;2023-09-30T13:18:15;7.97;;;5.33;;
10461;SDS011;5278;42.656;23.374;2023-09-30T13:20:43;8.40;;;5.23;;
10461;SDS011;5278;42.656;23.374;2023-09-30T13:23:11;5.43;;;4.17;;
10461;SDS011;5278;42.656;23.374;2023-09-30T13:25:38;9.00;;;6.47;;
10461;SDS011;5278;42.656;23.374;2023-09-30T13:28:05;6.37;;;5.00;;
10461;SDS011;5278;42.656;23.374;2023-09-30T13:30:32;8.90;;;5.07;;
10461;SDS011;5278;42.656;23.374;2023-09-30T13:33:00;8.90;;;5.57;;
10461;SDS011;5278;42.656;23.374;2023-09-30T13:35:27;9.40;;;5.30;;
10461;SDS011;5278;42.656;23.374;2023-09-30T13:37:54;6.90;;;5.07;;
10461;SDS011;5278;42.656;23.374;2023-09-30T13:40:21;9.27;;;4.63;;
10461;SDS011;5278;42.656;23.374;2023-09-30T13:42:48;5.87;;;5.00;;
10461;SDS011;5278;42.656;23.374;2023-09-30T13:45:15;7.23;;;5.33;;
10461;SDS011;5278;42.656;23.374;2023-09-30T13:47:43;7.73;;;6.13;;
10461;SDS011;5278;42.656;23.374;2023-09-30T13:50:11;6.20;;;5.60;;
10461;SDS011;5278;42.656;23.374;2023-09-30T13:52:38;7.83;;;5.23;;
10461;SDS011;5278;42.656;23.374;2023-09-30T13:55:06;9.93;;;5.00;;
10461;SDS011;5278;42.656;23.374;2023-09-30T13:57:34;9.10;;;5.10;;
10461;SDS011;5278;42.656;23.374;2023-09-30T14:00:01;14.03;;;6.97;;
10461;SDS011;5278;42.656;23.374;2023-09-30T14:02:31;11.47;;;4.93;;
10461;SDS011;5278;42.656;23.374;2023-09-30T14:04:58;9.73;;;5.03;;
10461;SDS011;5278;42.656;23.374;2023-09-30T14:07:26;6.93;;;5.10;;
10461;SDS011;5278;42.656;23.374;2023-09-30T14:09:54;6.13;;;5.13;;
10461;SDS011;5278;42.656;23.374;2023-09-30T14:12:21;7.70;;;4.90;;
10461;SDS011;5278;42.656;23.374;2023-09-30T14:14:48;7.77;;;4.57;;
10461;SDS011;5278;42.656;23.374;2023-09-30T14:17:17;9.03;;;5.40;;
10461;SDS011;5278;42.656;23.374;2023-09-30T14:19:45;8.50;;;5.50;;
10461;SDS011;5278;42.656;23.374;2023-09-30T14:22:11;8.73;;;5.17;;
10461;SDS011;5278;42.656;23.374;2023-09-30T14:24:40;7.93;;;4.57;;
10461;SDS011;5278;42.656;23.374;2023-09-30T14:27:07;9.30;;;5.73;;
10461;SDS011;5278;42.656;23.374;2023-09-30T14:29:34;7.70;;;4.57;;
10461;SDS011;5278;42.656;23.374;2023-09-30T14:32:01;8.20;;;4.63;;
10461;SDS011;5278;42.656;23.374;2023-09-30T14:34:28;9.63;;;5.23;;
10461;SDS011;5278;42.656;23.374;2023-09-30T14:36:55;6.40;;;4.97;;
10461;SDS011;5278;42.656;23.374;2023-09-30T14:39:22;6.73;;;5.23;;
10461;SDS011;5278;42.656;23.374;2023-09-30T14:41:50;10.83;;;5.20;;
10461;SDS011;5278;42.656;23.374;2023-09-30T14:44:17;5.87;;;3.97;;
10461;SDS011;5278;42.656;23.374;2023-09-30T14:46:47;5.93;;;4.87;;
10461;SDS011;5278;42.656;23.374;2023-09-30T14:49:13;6.20;;;5.07;;
10461;SDS011;5278;42.656;23.374;2023-09-30T14:51:40;7.13;;;4.87;;
10461;SDS011;5278;42.656;23.374;2023-09-30T14:54:07;6.60;;;4.27;;
10461;SDS011;5278;42.656;23.374;2023-09-30T14:56:35;6.13;;;4.50;;
10461;SDS011;5278;42.656;23.374;2023-09-30T14:59:03;10.07;;;4.60;;
10461;SDS011;5278;42.656;23.374;2023-09-30T15:01:30;12.20;;;6.30;;
10461;SDS011;5278;42.656;23.374;2023-09-30T15:03:58;11.47;;;6.10;;
10461;SDS011;5278;42.656;23.374;2023-09-30T15:06:25;9.33;;;5.13;;